Flight Track Log - Related Links

Times and Time Zones

All times are in EDT time to prevent confusion due to time zone crossing. See the N210FT flight status page for this flight to view local times or setup timezone preferences in your user account.

Time Position Orientation Groundspeed Altitude Reporting Facility
EDT Latitude Longitude Course Direction KTS MPH feet Rate Location/Type
Wed 01:17:39 PM 27.0222 -80.5222 324° Northwest 104 120 1,500  Level Miami Center
Wed 01:18:39 PM 27.0514 -80.5278 350° North 119 137 1,500  Level Miami Center
Wed 01:19:39 PM 27.0803 -80.5425 336° Northwest 119 137 1,500  Level Miami Center
Wed 01:21:00 PM 27.1216 -80.5726 325° Northwest  Level Estimated
Wed 01:22:39 PM 27.1583 -80.5942 324° Northwest 109 125 1,500  Level Miami Center
Wed 01:23:00 PM 27.4172 -80.6949 324° Northwest  Level FlightAware Approximate
Wed 01:24:00 PM 27.2057 -80.6094 344° North  Level FlightAware Approximate
Wed 01:25:39 PM 27.2342 -80.6481 344° North 109 125 1,500  Level Miami Center
Wed 01:26:39 PM 27.2586 -80.6697 322° Northwest 109 125 1,500  Level Miami Center
Wed 01:27:39 PM 27.2831 -80.6939 319° Northwest 109 125 1,500 -50 Level Miami Center
Wed 01:28:00 PM 27.3355 -80.7293 324° Northwest  Level Estimated
Wed 01:28:39 PM 27.3075 -80.7133 325° Northwest 109 125 1,400  Level Miami Center
Wed 01:29:39 PM 27.3364 -80.7261 339° North 109 125 1,400 50 Level Miami Center
Wed 01:30:39 PM 27.3636 -80.7294 354° North 104 120 1,500 50 Climbing Miami Center
Wed 01:31:39 PM 27.3906 -80.7350 350° North 104 120 1,500 -50 Level Miami Center
Wed 01:32:39 PM 27.4236 -80.7408 351° North 104 120 1,400 -50 Descending Miami Center
Wed 01:33:39 PM 27.4486 -80.7417 358° North 98 113 1,400  Level Miami Center
Wed 01:34:39 PM 27.4781 -80.7403 North 98 113 1,400  Level Miami Center
Wed 01:35:39 PM 27.5031 -80.7433 354° North 98 113 1,400  Level Miami Center
Wed 01:36:39 PM 27.5319 -80.7514 346° North 103 119 1,400  Level Miami Center
Wed 01:37:51 PM 27.5611 -80.7572 350° North 103 119 1,400  Level Miami Center
Wed 01:38:51 PM 27.5919 -80.7697 340° North 103 119 1,400 50 Level Miami Center
Wed 01:39:51 PM 27.6208 -80.7825 339° North 103 119 1,500  Climbing Miami Center
Wed 01:40:51 PM 27.6433 -80.8019 323° Northwest 103 119 1,400 -50 Descending Miami Center
Wed 01:41:51 PM 27.6614 -80.8239 313° West 108 124 1,400  Level Miami Center
Wed 01:42:51 PM 27.6878 -80.8528 316° Northwest 114 131 1,400  Level Miami Center
Wed 01:43:51 PM 27.7100 -80.8817 311° West 114 131 1,400  Level Miami Center
Wed 01:44:51 PM 27.7261 -80.9058 307° West 114 131 1,400  Level Miami Center
Wed 01:45:51 PM 27.7483 -80.9278 319° Northwest 114 131 1,400 50 Level Miami Center
Wed 01:46:51 PM 27.7728 -80.9519 319° Northwest 114 131 1,500  Climbing Miami Center
Wed 01:47:51 PM 27.7994 -80.9694 330° Northwest 108 124 1,400 -50 Descending Miami Center
Wed 01:48:51 PM 27.8261 -80.9844 334° Northwest 101 116 1,400 50 Level Miami Center
Wed 01:49:51 PM 27.8467 -80.9992 328° Northwest 101 116 1,500 50 Climbing Miami Center
Wed 01:50:51 PM 27.8731 -81.0167 330° Northwest 101 116 1,500 -31 Level Miami Center
Wed 01:53:03 PM 27.9333 -81.0667 324° Northwest 108 124 1,400 -31 Descending Orlando TRACON
Wed 01:54:03 PM 27.9500 -81.0833 319° Northwest 110 127 1,400 48 Level Orlando TRACON
Wed 01:55:09 PM 27.9667 -81.1167 300° West 104 120 1,500 50 Climbing Orlando TRACON
Wed 01:56:03 PM 28.0000 -81.1333 336° Northwest 107 123 1,500  Level Orlando TRACON
Wed 01:57:03 PM 28.0167 -81.1500 319° Northwest 113 130 1,500  Level Orlando TRACON
Wed 01:58:03 PM 28.0500 -81.1833 319° Northwest 112 129 1,500  Level Orlando TRACON
Wed 01:59:03 PM 28.0667 -81.2000 319° Northwest 118 136 1,500 -50 Level Orlando TRACON
Wed 02:00:03 PM 28.0833 -81.2333 300° West 119 137 1,400 -104 Descending Orlando TRACON
Wed 02:00:58 PM 28.0833 -81.2667 270° West 125 144 1,300 53 Descending Orlando TRACON
Wed 02:01:57 PM 28.1000 -81.3000 300° West 118 136 1,500 50 Climbing Orlando TRACON
Wed 02:02:57 PM 28.1167 -81.3500 291° West 121 139 1,400 -50 Descending Orlando TRACON
Wed 02:03:58 PM 28.1333 -81.3667 319° Northwest 117 135 1,400  Level Orlando TRACON
Wed 02:05:03 PM 28.1500 -81.4167 291° West 115 132 1,400 50 Level Orlando TRACON
Wed 02:05:58 PM 28.1667 -81.4333 319° Northwest 120 138 1,500 -50 Climbing Orlando TRACON
Wed 02:07:03 PM 28.1667 -81.4833 270° West 117 135 1,300  Descending Orlando TRACON
Wed 02:08:04 PM 28.1833 -81.5000 319° Northwest 108 124 1,500 -50 Climbing Orlando TRACON
Wed 02:09:04 PM 28.2167 -81.5167 336° Northwest 91 105 1,200 -100 Descending Orlando TRACON
Wed 02:10:04 PM 28.2333 -81.5000 41° Northeast 76 87 1,300 -100 Climbing Orlando TRACON
Wed 02:11:04 PM 28.2500 -81.4833 41° Northeast 81 93 1,000 -421 Descending Orlando TRACON
Wed 02:11:58 PM 28.2667 -81.4667 41° Northeast 87 100 500 -368 Descending Orlando TRACON
Wed 02:12:58 PM 28.2833 -81.4500 41° Northeast 60 69 300 -200 Descending Orlando TRACON

Login

Don't have an account? Register now (free) for customized features, flight alerts, and more!